createdAt,value
2018-07-30T00:01:04.447Z,20.90
2018-07-30T00:02:36.019Z,19.80
2018-07-30T00:04:07.593Z,21.90
2018-07-30T00:05:39.167Z,22.90
2018-07-30T00:07:10.741Z,21.90
2018-07-30T00:08:42.315Z,22.70
2018-07-30T00:10:13.995Z,23.00
2018-07-30T00:11:45.464Z,24.10
2018-07-30T00:13:17.036Z,25.80
2018-07-30T00:14:48.609Z,21.50
2018-07-30T00:16:20.183Z,24.10
2018-07-30T00:17:51.757Z,23.10
2018-07-30T00:19:23.330Z,23.50
2018-07-30T00:20:54.907Z,26.90
2018-07-30T00:22:26.477Z,25.10
2018-07-30T00:23:58.052Z,26.60
2018-07-30T00:25:29.625Z,26.50
2018-07-30T00:27:01.197Z,25.60
2018-07-30T00:28:33.674Z,27.70
2018-07-30T00:30:04.346Z,26.70
2018-07-30T00:31:35.919Z,26.40
2018-07-30T00:33:07.495Z,26.00
2018-07-30T00:34:39.068Z,29.10
2018-07-30T00:36:10.639Z,27.80
2018-07-30T00:37:42.212Z,28.70
2018-07-30T00:39:13.785Z,27.00
2018-07-30T00:40:45.609Z,28.80
2018-07-30T00:42:16.931Z,26.90
2018-07-30T00:43:48.509Z,27.00
2018-07-30T00:45:20.078Z,30.70
2018-07-30T00:46:51.891Z,28.00
2018-07-30T00:48:23.224Z,29.60
2018-07-30T00:49:54.798Z,28.30
2018-07-30T00:51:26.370Z,32.30
2018-07-30T00:52:57.945Z,29.90
2018-07-30T00:54:29.515Z,29.70
2018-07-30T00:56:01.090Z,30.50
2018-07-30T00:57:32.668Z,31.30
2018-07-30T00:59:04.335Z,29.40
2018-07-30T01:00:35.807Z,34.50
2018-07-30T01:02:07.381Z,29.70
2018-07-30T01:03:38.953Z,30.80
2018-07-30T01:05:10.677Z,35.10
2018-07-30T01:06:42.101Z,35.60
2018-07-30T01:08:13.674Z,31.50
2018-07-30T01:09:45.245Z,32.10
2018-07-30T01:11:17.070Z,33.70
2018-07-30T01:12:48.392Z,32.20
2018-07-30T01:14:19.968Z,32.30
2018-07-30T01:15:51.538Z,34.10
2018-07-30T01:17:23.111Z,33.60
2018-07-30T01:18:54.684Z,33.80
2018-07-30T01:20:26.259Z,32.80
2018-07-30T01:21:57.831Z,31.70
2018-07-30T01:23:29.502Z,35.40
2018-07-30T01:25:00.977Z,31.00
2018-07-30T01:26:32.550Z,33.50
2018-07-30T01:28:04.122Z,33.40
2018-07-30T01:29:35.800Z,33.60
2018-07-30T01:31:07.269Z,33.30
2018-07-30T01:32:38.845Z,33.90
2018-07-30T01:34:10.416Z,35.40
2018-07-30T01:35:41.990Z,32.60
2018-07-30T01:37:13.562Z,34.20
2018-07-30T01:38:45.136Z,32.50
2018-07-30T01:40:16.710Z,31.90
2018-07-30T01:41:48.636Z,32.50
2018-07-30T01:43:19.857Z,33.10
2018-07-30T01:44:51.433Z,34.20
2018-07-30T01:46:23.003Z,30.70
2018-07-30T01:47:54.576Z,32.30
2018-07-30T01:49:26.150Z,31.30
2018-07-30T01:50:57.722Z,34.50
2018-07-30T01:52:29.296Z,32.10
2018-07-30T01:54:00.870Z,31.20
2018-07-30T01:55:32.452Z,33.10
2018-07-30T01:57:04.017Z,30.50
2018-07-30T01:58:35.591Z,31.60
2018-07-30T02:00:07.415Z,31.60
2018-07-30T02:01:38.737Z,33.40
2018-07-30T02:03:10.311Z,32.50
2018-07-30T02:04:41.886Z,35.00
2018-07-30T02:06:13.458Z,34.90
2018-07-30T02:07:45.032Z,34.60
2018-07-30T02:09:16.607Z,35.90
2018-07-30T02:10:48.179Z,35.90
2018-07-30T02:12:19.752Z,35.30
2018-07-30T02:13:51.327Z,34.90
2018-07-30T02:15:22.900Z,33.60
2018-07-30T02:16:54.474Z,35.50
2018-07-30T02:18:26.848Z,33.50
2018-07-30T02:19:57.620Z,32.90
2018-07-30T02:21:29.259Z,31.90
2018-07-30T02:23:00.768Z,30.60
2018-07-30T02:24:32.342Z,31.80
2018-07-30T02:26:03.915Z,33.80
2018-07-30T02:27:35.488Z,35.20
2018-07-30T02:29:07.062Z,35.20
2018-07-30T02:30:38.736Z,36.00
2018-07-30T02:32:10.208Z,33.90
2018-07-30T02:33:41.782Z,33.60
2018-07-30T02:35:13.356Z,34.80
2018-07-30T02:36:45.031Z,33.20
2018-07-30T02:38:16.506Z,34.00
2018-07-30T02:39:48.079Z,34.10
2018-07-30T02:41:19.649Z,34.50
2018-07-30T02:42:51.224Z,33.80
2018-07-30T02:44:22.800Z,33.20
2018-07-30T02:45:54.374Z,35.80
2018-07-30T02:47:25.943Z,34.30
2018-07-30T02:48:57.517Z,34.40
2018-07-30T02:50:29.092Z,32.80
2018-07-30T02:52:00.662Z,33.90
2018-07-30T02:53:32.239Z,35.30
2018-07-30T02:55:03.913Z,30.70
2018-07-30T02:56:35.383Z,31.60
2018-07-30T02:58:06.955Z,32.70
2018-07-30T02:59:38.537Z,29.80
2018-07-30T03:01:10.102Z,28.40
2018-07-30T03:02:41.682Z,29.40
2018-07-30T03:04:13.249Z,31.20
2018-07-30T03:05:44.822Z,34.10
2018-07-30T03:07:16.396Z,28.30
2018-07-30T03:08:47.969Z,28.60
2018-07-30T03:10:19.544Z,29.60
2018-07-30T03:11:51.116Z,29.30
2018-07-30T03:13:22.793Z,29.40
2018-07-30T03:14:54.264Z,31.80
2018-07-30T03:16:25.837Z,28.30
2018-07-30T03:17:57.410Z,29.20
2018-07-30T03:19:28.982Z,29.60
2018-07-30T03:21:00.557Z,30.70
2018-07-30T03:22:32.129Z,30.30
2018-07-30T03:24:03.704Z,36.90
2018-07-30T03:25:35.279Z,29.50
2018-07-30T03:27:06.851Z,30.20
2018-07-30T03:28:38.465Z,31.60
2018-07-30T03:30:09.996Z,30.50
2018-07-30T03:31:41.829Z,29.70
2018-07-30T03:33:13.141Z,30.00
2018-07-30T03:34:44.715Z,28.20
2018-07-30T03:36:16.291Z,30.30
2018-07-30T03:37:47.864Z,27.20
2018-07-30T03:39:19.434Z,31.40
2018-07-30T03:40:51.005Z,28.80
2018-07-30T03:42:22.585Z,28.80
2018-07-30T03:43:54.151Z,29.80
2018-07-30T03:45:25.724Z,29.00
2018-07-30T03:46:57.296Z,29.60
2018-07-30T03:48:28.869Z,27.30
2018-07-30T03:50:00.792Z,27.30
2018-07-30T03:51:32.014Z,28.30
2018-07-30T03:53:03.586Z,29.80
2018-07-30T03:54:35.191Z,27.60
2018-07-30T03:56:06.731Z,27.10
2018-07-30T03:57:38.303Z,29.40
2018-07-30T03:59:09.875Z,31.20
2018-07-30T04:00:41.446Z,29.90
2018-07-30T04:02:13.122Z,30.90
2018-07-30T04:03:44.600Z,31.80
2018-07-30T04:05:16.164Z,33.20
2018-07-30T04:06:47.736Z,27.40
2018-07-30T04:08:19.408Z,29.70
2018-07-30T04:09:50.880Z,29.90
2018-07-30T04:11:22.453Z,28.20
2018-07-30T04:12:54.024Z,28.70
2018-07-30T04:14:25.596Z,28.10
2018-07-30T04:15:57.168Z,29.40
2018-07-30T04:17:28.742Z,25.90
2018-07-30T04:19:00.313Z,25.80
2018-07-30T04:20:31.884Z,25.10
2018-07-30T04:22:03.462Z,24.60
2018-07-30T04:23:35.029Z,27.30
2018-07-30T04:25:06.602Z,27.40
2018-07-30T04:26:38.271Z,24.30
2018-07-30T04:28:09.744Z,25.00
2018-07-30T04:29:41.316Z,25.40
2018-07-30T04:31:12.888Z,29.90
2018-07-30T04:32:44.560Z,27.00
2018-07-30T04:34:16.033Z,25.40
2018-07-30T04:35:47.604Z,25.10
2018-07-30T04:37:19.182Z,25.30
2018-07-30T04:38:50.749Z,25.70
2018-07-30T04:40:22.320Z,27.30
2018-07-30T04:41:53.891Z,25.00
2018-07-30T04:43:25.463Z,25.60
2018-07-30T04:44:57.385Z,24.40
2018-07-30T04:46:28.607Z,24.10
2018-07-30T04:48:00.179Z,26.80
2018-07-30T04:49:31.751Z,25.30
2018-07-30T04:51:03.373Z,24.90
2018-07-30T04:52:34.893Z,25.80
2018-07-30T04:54:06.468Z,28.30
2018-07-30T04:55:38.037Z,32.10
2018-07-30T04:57:09.610Z,25.40
2018-07-30T04:58:41.183Z,26.50
2018-07-30T05:00:12.753Z,27.90
2018-07-30T05:01:44.325Z,22.80
2018-07-30T05:03:16.099Z,26.30
2018-07-30T05:04:47.467Z,23.70
2018-07-30T05:06:19.039Z,26.30
2018-07-30T05:07:50.611Z,27.40
2018-07-30T05:09:22.183Z,23.90
2018-07-30T05:10:53.754Z,24.70
2018-07-30T05:12:25.326Z,22.70
2018-07-30T05:13:56.897Z,24.40
2018-07-30T05:15:28.719Z,21.50
2018-07-30T05:17:00.041Z,23.70
2018-07-30T05:18:31.612Z,24.40
2018-07-30T05:20:03.185Z,22.20
2018-07-30T05:21:34.855Z,23.20
2018-07-30T05:23:06.325Z,24.60
2018-07-30T05:24:37.896Z,24.30
2018-07-30T05:26:09.469Z,22.50
2018-07-30T05:27:41.040Z,22.70
2018-07-30T05:29:12.610Z,24.20
2018-07-30T05:30:44.184Z,26.40
2018-07-30T05:32:15.753Z,25.60
2018-07-30T05:33:47.423Z,25.10
2018-07-30T05:35:18.895Z,25.30
2018-07-30T05:36:50.465Z,24.40
2018-07-30T05:38:22.041Z,25.70
2018-07-30T05:39:53.809Z,23.50
2018-07-30T05:41:25.180Z,25.80
2018-07-30T05:42:56.755Z,24.20
2018-07-30T05:44:28.321Z,25.30
2018-07-30T05:45:59.893Z,29.20
2018-07-30T05:47:31.464Z,24.10
2018-07-30T05:49:03.035Z,28.00
2018-07-30T05:50:34.610Z,27.00
2018-07-30T05:52:06.181Z,28.50
2018-07-30T05:53:37.748Z,31.00
2018-07-30T05:55:09.319Z,28.70
2018-07-30T05:56:40.890Z,27.60
2018-07-30T05:58:12.561Z,29.70
2018-07-30T05:59:44.078Z,25.80
2018-07-30T06:01:15.601Z,25.90
2018-07-30T06:02:47.173Z,28.30
2018-07-30T06:04:18.843Z,28.00
2018-07-30T06:05:50.318Z,28.90
2018-07-30T06:07:21.885Z,28.80
2018-07-30T06:08:53.457Z,29.20
2018-07-30T06:10:25.127Z,26.60
2018-07-30T06:11:56.597Z,30.20
2018-07-30T06:13:28.167Z,26.60
2018-07-30T06:14:59.738Z,29.00
2018-07-30T06:16:31.659Z,29.90
2018-07-30T06:18:04.082Z,26.30
2018-07-30T06:19:34.450Z,24.90
2018-07-30T06:21:06.029Z,30.40
2018-07-30T06:22:37.592Z,27.00
2018-07-30T06:24:09.163Z,28.70
2018-07-30T06:25:40.734Z,28.20
2018-07-30T06:27:12.305Z,30.30
2018-07-30T06:28:43.875Z,29.10
2018-07-30T06:30:15.446Z,26.50
2018-07-30T06:31:47.044Z,29.50
2018-07-30T06:33:18.589Z,31.20
2018-07-30T06:34:50.262Z,26.10
2018-07-30T06:36:21.729Z,30.70
2018-07-30T06:37:53.301Z,28.90
2018-07-30T06:39:24.869Z,29.10
2018-07-30T06:40:56.441Z,31.10
2018-07-30T06:42:28.012Z,27.90
2018-07-30T06:43:59.582Z,31.90
2018-07-30T06:45:31.154Z,30.40
2018-07-30T06:47:02.975Z,26.50
2018-07-30T06:48:34.296Z,32.80
2018-07-30T06:50:05.866Z,31.40
2018-07-30T06:51:37.436Z,30.60
2018-07-30T06:53:09.116Z,28.40
2018-07-30T06:54:40.578Z,29.10
2018-07-30T06:56:12.148Z,27.10
2018-07-30T06:57:43.719Z,27.90
2018-07-30T06:59:15.289Z,31.60
2018-07-30T07:00:46.860Z,29.50
2018-07-30T07:02:18.431Z,30.10
2018-07-30T07:03:50.003Z,30.50
2018-07-30T07:05:21.673Z,30.80
2018-07-30T07:06:53.146Z,32.30
2018-07-30T07:08:24.715Z,33.70
2018-07-30T07:09:56.286Z,33.60
2018-07-30T07:11:27.962Z,29.40
2018-07-30T07:12:59.427Z,32.30
2018-07-30T07:14:30.997Z,32.20
2018-07-30T07:16:02.568Z,36.40
2018-07-30T07:17:34.388Z,31.50
2018-07-30T07:19:05.709Z,29.30
2018-07-30T07:20:37.297Z,29.40
2018-07-30T07:22:08.851Z,29.30
2018-07-30T07:23:40.521Z,31.90
2018-07-30T07:25:11.992Z,35.70
2018-07-30T07:26:43.563Z,36.70
2018-07-30T07:28:15.134Z,33.40
2018-07-30T07:29:46.804Z,37.80
2018-07-30T07:31:18.275Z,33.80
2018-07-30T07:32:49.846Z,29.60
2018-07-30T07:34:21.417Z,31.30
2018-07-30T07:35:53.089Z,31.30
2018-07-30T07:37:24.558Z,34.30
2018-07-30T07:38:56.129Z,39.20
2018-07-30T07:40:27.700Z,39.20
2018-07-30T07:41:59.272Z,34.30
2018-07-30T07:43:30.842Z,37.10
2018-07-30T07:45:02.468Z,30.80
2018-07-30T07:46:33.986Z,34.90
2018-07-30T07:48:05.905Z,34.70
2018-07-30T07:49:37.125Z,41.10
2018-07-30T07:51:08.750Z,39.20
2018-07-30T07:52:40.267Z,42.80
2018-07-30T07:54:11.843Z,38.00
2018-07-30T07:55:43.408Z,37.70
2018-07-30T07:57:14.979Z,42.00
2018-07-30T07:58:46.551Z,39.30
2018-07-30T08:00:18.123Z,40.30
2018-07-30T08:01:49.692Z,38.20
2018-07-30T08:03:21.267Z,36.20
2018-07-30T08:04:52.835Z,37.60
2018-07-30T08:06:24.608Z,40.90
2018-07-30T08:07:55.976Z,43.60
2018-07-30T08:09:27.549Z,40.00
2018-07-30T08:10:59.189Z,40.30
2018-07-30T08:12:30.688Z,40.20
2018-07-30T08:14:02.260Z,42.00
2018-07-30T08:15:33.831Z,45.40
2018-07-30T08:17:05.401Z,40.60
2018-07-30T08:18:37.221Z,44.90
2018-07-30T08:20:08.543Z,39.50
2018-07-30T08:21:40.112Z,41.20
2018-07-30T08:23:11.682Z,45.90
2018-07-30T08:24:43.353Z,42.40
2018-07-30T08:26:14.823Z,42.30
2018-07-30T08:27:46.398Z,41.70
2018-07-30T08:29:17.969Z,45.20
2018-07-30T08:30:49.535Z,43.30
2018-07-30T08:32:21.108Z,46.70
2018-07-30T08:33:52.676Z,46.50
2018-07-30T08:35:24.250Z,45.80
2018-07-30T08:36:55.917Z,44.10
2018-07-30T08:38:27.387Z,46.70
2018-07-30T08:39:58.958Z,44.30
2018-07-30T08:41:30.528Z,50.10
2018-07-30T08:43:02.349Z,56.50
2018-07-30T08:44:33.669Z,57.60
2018-07-30T08:46:05.239Z,54.10
2018-07-30T08:47:36.810Z,52.30
2018-07-30T08:49:08.380Z,60.80
2018-07-30T08:50:39.950Z,58.60
2018-07-30T08:52:11.520Z,59.80
2018-07-30T08:53:43.091Z,56.30
2018-07-30T08:55:14.661Z,74.70
2018-07-30T08:56:46.231Z,77.90
2018-07-30T08:58:17.803Z,67.60
2018-07-30T08:59:49.372Z,73.10
2018-07-30T09:01:21.042Z,76.90
2018-07-30T09:02:52.515Z,84.60
2018-07-30T09:04:24.082Z,85.50
2018-07-30T09:05:55.653Z,78.70
2018-07-30T09:07:27.323Z,96.00
2018-07-30T09:08:58.796Z,100.20
2018-07-30T09:10:30.362Z,90.10
2018-07-30T09:12:01.935Z,99.10
2018-07-30T09:13:33.502Z,107.50
2018-07-30T09:15:05.072Z,114.30
2018-07-30T09:16:36.641Z,114.80
2018-07-30T09:18:08.291Z,116.70
2018-07-30T09:19:39.881Z,120.20
2018-07-30T09:21:11.351Z,120.20
2018-07-30T09:22:42.920Z,116.00
2018-07-30T09:24:14.537Z,120.90
2018-07-30T09:25:46.059Z,128.20
2018-07-30T09:27:17.629Z,130.00
2018-07-30T09:28:49.199Z,127.70
2018-07-30T09:30:20.767Z,116.80
2018-07-30T09:31:52.338Z,131.60
2018-07-30T09:33:23.907Z,124.70
2018-07-30T09:34:55.477Z,124.80
2018-07-30T09:36:27.046Z,125.40
2018-07-30T09:37:58.916Z,135.70
2018-07-30T09:39:30.191Z,133.40
2018-07-30T09:41:01.758Z,137.90
2018-07-30T09:42:33.325Z,132.60
2018-07-30T09:44:04.895Z,143.50
2018-07-30T09:45:36.466Z,126.20
2018-07-30T09:47:08.037Z,135.40
2018-07-30T09:48:39.604Z,128.00
2018-07-30T09:50:11.424Z,124.70
2018-07-30T09:51:42.744Z,124.90
2018-07-30T09:53:14.314Z,126.50
2018-07-30T09:54:45.886Z,115.10
2018-07-30T09:56:17.568Z,111.40
2018-07-30T09:57:49.024Z,119.80
2018-07-30T09:59:20.899Z,123.70
2018-07-30T10:00:52.163Z,112.30
2018-07-30T10:02:23.736Z,113.30
2018-07-30T10:03:55.304Z,112.40
2018-07-30T10:06:58.444Z,99.10
2018-07-30T10:08:30.116Z,95.50
2018-07-30T10:10:01.585Z,91.30
2018-07-30T10:11:33.195Z,90.10
2018-07-30T10:13:04.726Z,87.80
2018-07-30T10:14:36.396Z,82.20
2018-07-30T10:16:07.867Z,80.60
2018-07-30T10:17:39.474Z,83.90
2018-07-30T10:19:11.008Z,89.50
2018-07-30T10:20:42.584Z,86.10
2018-07-30T10:22:14.149Z,78.70
2018-07-30T10:23:46.302Z,77.30
2018-07-30T10:25:17.290Z,70.80
2018-07-30T10:26:48.861Z,71.60
2018-07-30T10:28:20.432Z,78.20
2018-07-30T10:29:52.002Z,73.40
2018-07-30T10:31:23.573Z,71.90
2018-07-30T10:32:55.245Z,66.70
2018-07-30T10:35:58.286Z,62.40
2018-07-30T10:37:29.857Z,55.10
2018-07-30T10:39:01.529Z,55.40
2018-07-30T10:42:04.571Z,55.20
2018-07-30T10:43:36.665Z,50.00
2018-07-30T10:45:07.714Z,53.70
2018-07-30T10:48:10.899Z,46.70
2018-07-30T10:51:14.100Z,42.10
2018-07-30T10:52:45.572Z,39.60
2018-07-30T10:57:20.593Z,38.60
2018-07-30T10:58:51.894Z,36.70
2018-07-30T11:00:23.435Z,34.80
2018-07-30T11:01:55.009Z,35.70
2018-07-30T11:04:58.153Z,36.40
2018-07-30T11:06:29.728Z,36.20
2018-07-30T11:08:01.301Z,35.90
2018-07-30T11:11:04.601Z,36.40
2018-07-30T11:12:36.228Z,38.80
2018-07-30T11:14:07.594Z,36.50
2018-07-30T11:15:39.175Z,27.70
2018-07-30T11:17:10.743Z,29.50
2018-07-30T11:18:42.319Z,27.90
2018-07-30T11:20:13.895Z,31.60
2018-07-30T11:26:20.308Z,32.30
2018-07-30T11:27:51.800Z,32.00
2018-07-30T11:32:27.417Z,26.30
2018-07-30T11:33:58.082Z,26.80
2018-07-30T11:35:29.662Z,26.00
2018-07-30T11:38:32.817Z,30.80
2018-07-30T11:40:04.442Z,35.80
2018-07-30T11:43:07.549Z,29.00
2018-07-30T11:44:39.628Z,29.90
2018-07-30T11:46:10.703Z,26.60
2018-07-30T11:47:42.280Z,27.50
2018-07-30T11:49:13.860Z,25.50
2018-07-30T11:50:45.689Z,30.70
2018-07-30T11:52:17.018Z,27.70
2018-07-30T11:55:20.176Z,32.90
2018-07-30T11:56:52.109Z,28.40
2018-07-30T11:59:54.912Z,33.00
2018-07-30T12:01:26.591Z,29.20
2018-07-30T12:02:58.169Z,30.80
2018-07-30T12:07:33.013Z,34.30
2018-07-30T12:09:04.834Z,30.50
2018-07-30T12:10:35.957Z,33.40
2018-07-30T12:12:07.757Z,30.60
2018-07-30T12:13:39.122Z,28.70
2018-07-30T12:15:10.893Z,30.00
2018-07-30T12:16:42.267Z,31.40
2018-07-30T12:18:14.149Z,30.60
2018-07-30T12:19:45.428Z,29.70
2018-07-30T12:21:17.091Z,34.60
2018-07-30T12:22:49.075Z,33.00
2018-07-30T12:24:20.346Z,30.60
2018-07-30T12:25:51.720Z,32.90
2018-07-30T12:27:23.297Z,30.10
2018-07-30T12:28:55.176Z,28.90
2018-07-30T12:31:58.230Z,33.10
2018-07-30T12:33:29.605Z,34.40
2018-07-30T12:35:01.183Z,33.20
2018-07-30T12:36:33.155Z,31.70
2018-07-30T12:39:36.321Z,31.60
2018-07-30T12:41:07.523Z,32.40
2018-07-30T12:42:39.073Z,32.30
2018-07-30T12:44:10.858Z,31.50
2018-07-30T12:45:42.434Z,27.70
2018-07-30T12:47:13.845Z,28.60
2018-07-30T12:50:16.973Z,31.20
2018-07-30T12:51:48.757Z,26.80
2018-07-30T12:53:20.135Z,30.20
2018-07-30T12:56:23.298Z,24.10
2018-07-30T12:57:55.065Z,24.00
2018-07-30T12:59:26.461Z,21.60
2018-07-30T13:00:58.565Z,19.20
2018-07-30T13:02:29.675Z,19.20
2018-07-30T13:04:01.453Z,20.40
2018-07-30T13:05:32.778Z,21.50
2018-07-30T13:07:04.357Z,21.20
2018-07-30T13:08:35.934Z,18.00
2018-07-30T13:10:07.729Z,21.40
2018-07-30T13:11:39.089Z,21.50
2018-07-30T13:13:10.667Z,22.60
2018-07-30T13:14:42.244Z,16.90
2018-07-30T13:16:14.171Z,18.70
2018-07-30T13:17:45.600Z,17.20
2018-07-30T13:19:17.500Z,17.00
2018-07-30T13:20:48.552Z,22.30
2018-07-30T13:22:20.134Z,14.20
2018-07-30T13:23:51.711Z,15.70
2018-07-30T13:25:23.286Z,16.00
2018-07-30T13:26:54.978Z,14.60
2018-07-30T13:28:26.443Z,15.10
2018-07-30T13:29:58.024Z,13.50
2018-07-30T13:31:29.751Z,12.50
2018-07-30T13:34:32.866Z,12.50
2018-07-30T13:37:35.926Z,11.80
2018-07-30T13:39:07.651Z,12.60
2018-07-30T13:40:39.080Z,11.20
2018-07-30T13:42:10.659Z,14.80
2018-07-30T13:45:13.817Z,14.20
2018-07-30T13:46:45.600Z,13.70
2018-07-30T13:48:16.976Z,11.30
2018-07-30T13:49:48.556Z,14.40
2018-07-30T13:51:20.136Z,10.90
2018-07-30T13:52:51.819Z,10.00
2018-07-30T13:54:23.926Z,10.40
2018-07-30T13:55:54.880Z,10.60
2018-07-30T13:58:58.567Z,11.60
2018-07-30T14:00:29.619Z,12.30
2018-07-30T14:02:01.199Z,12.70
2018-07-30T14:05:07.495Z,13.40
2018-07-30T14:06:36.097Z,13.20
2018-07-30T14:11:11.379Z,13.30
2018-07-30T14:12:42.368Z,14.20
2018-07-30T14:14:13.846Z,14.30
2018-07-30T14:15:45.608Z,12.80
2018-07-30T14:17:17.084Z,12.60
2018-07-30T14:18:48.562Z,14.80
2018-07-30T14:20:20.147Z,16.50
2018-07-30T14:21:51.721Z,14.50
2018-07-30T14:23:23.296Z,16.30
2018-07-30T14:24:54.877Z,13.40
2018-07-30T14:26:26.453Z,12.90
2018-07-30T14:27:58.031Z,14.70
2018-07-30T14:29:29.710Z,14.50
2018-07-30T14:31:01.195Z,12.90
2018-07-30T14:32:32.770Z,12.60
2018-07-30T14:34:04.654Z,14.00
2018-07-30T14:35:35.947Z,13.20
2018-07-30T14:37:07.713Z,14.70
2018-07-30T14:38:39.101Z,16.60
2018-07-30T14:40:10.672Z,14.90
2018-07-30T14:41:42.607Z,13.80
2018-07-30T14:43:13.835Z,13.30
2018-07-30T14:44:45.619Z,13.60
2018-07-30T14:46:16.998Z,13.20
2018-07-30T14:47:48.833Z,15.90
2018-07-30T14:49:20.164Z,13.50
2018-07-30T14:50:51.747Z,13.70
2018-07-30T14:52:23.331Z,13.70
2018-07-30T14:53:55.219Z,14.20
2018-07-30T14:55:26.505Z,13.40
2018-07-30T14:56:58.387Z,13.30
2018-07-30T14:58:30.169Z,12.20
2018-07-30T15:00:01.278Z,13.20
2018-07-30T15:01:33.036Z,13.60
2018-07-30T15:03:04.467Z,13.90
2018-07-30T15:04:36.304Z,14.80
2018-07-30T15:07:39.568Z,16.20
2018-07-30T15:09:10.746Z,20.30
2018-07-30T15:10:42.632Z,19.10
2018-07-30T15:13:45.696Z,20.30
2018-07-30T15:15:17.072Z,20.40
2018-07-30T15:16:48.653Z,22.90
2018-07-30T15:18:20.761Z,18.40
2018-07-30T15:19:51.914Z,17.70
2018-07-30T15:21:23.395Z,16.80
2018-07-30T15:22:55.179Z,19.50
2018-07-30T15:24:26.554Z,19.50
2018-07-30T15:25:58.236Z,20.10
2018-07-30T15:27:29.711Z,19.00
2018-07-30T15:29:01.291Z,18.30
2018-07-30T15:30:33.801Z,18.10
2018-07-30T15:32:04.447Z,16.40
2018-07-30T15:33:36.023Z,17.30
2018-07-30T15:35:07.602Z,14.70
2018-07-30T15:36:39.382Z,14.30
2018-07-30T15:38:10.759Z,14.30
2018-07-30T15:39:42.339Z,14.90
2018-07-30T15:41:13.998Z,14.70
2018-07-30T15:45:48.746Z,12.60
2018-07-30T15:47:20.223Z,13.40
2018-07-30T15:48:51.851Z,12.50
2018-07-30T15:50:23.566Z,16.10
2018-07-30T15:51:54.955Z,12.00
2018-07-30T15:53:26.554Z,13.90
2018-07-30T15:54:58.847Z,12.20
2018-07-30T15:58:01.256Z,11.60
2018-07-30T15:59:33.036Z,13.60
2018-07-30T16:01:04.406Z,12.00
2018-07-30T16:02:35.991Z,13.10
2018-07-30T16:04:08.460Z,10.70
2018-07-30T16:05:39.161Z,10.20
2018-07-30T16:07:10.711Z,10.90
2018-07-30T16:08:42.286Z,9.80
2018-07-30T16:10:13.864Z,9.60
2018-07-30T16:13:17.019Z,10.40
2018-07-30T16:14:48.595Z,9.00
2018-07-30T16:16:20.172Z,9.60
2018-07-30T16:17:51.792Z,9.20
2018-07-30T16:19:23.328Z,9.70
2018-07-30T16:20:54.906Z,11.40
2018-07-30T16:22:26.785Z,9.20
2018-07-30T16:23:58.369Z,9.20
2018-07-30T16:25:29.640Z,10.70
2018-07-30T16:27:01.421Z,9.10
2018-07-30T16:28:32.899Z,10.50
2018-07-30T16:30:04.385Z,10.80
2018-07-30T16:31:36.207Z,9.70
2018-07-30T16:33:07.532Z,9.90
2018-07-30T16:34:39.113Z,9.50
2018-07-30T16:36:10.716Z,10.20
2018-07-30T16:37:42.271Z,9.80
2018-07-30T16:39:14.154Z,11.30
2018-07-30T16:40:45.579Z,11.60
2018-07-30T16:42:17.555Z,10.30
2018-07-30T16:43:49.360Z,10.90
2018-07-30T16:45:20.165Z,9.60
2018-07-30T16:46:51.932Z,12.70
2018-07-30T16:48:23.324Z,12.90
2018-07-30T16:49:54.904Z,11.00
2018-07-30T16:51:26.479Z,13.20
2018-07-30T16:52:58.832Z,11.30
2018-07-30T16:54:29.636Z,12.10
2018-07-30T16:56:01.217Z,10.40
2018-07-30T16:57:33.100Z,11.80
2018-07-30T16:59:04.473Z,11.20
2018-07-30T17:00:35.950Z,9.10
2018-07-30T17:02:07.528Z,11.50
2018-07-30T17:05:10.693Z,12.80
2018-07-30T17:06:42.315Z,13.60
2018-07-30T17:08:13.849Z,8.80
2018-07-30T17:09:45.416Z,10.00
2018-07-30T17:11:17.001Z,10.40
2018-07-30T17:12:48.928Z,10.40
2018-07-30T17:14:20.149Z,11.40
2018-07-30T17:15:51.928Z,10.30
2018-07-30T17:17:23.484Z,12.80
2018-07-30T17:18:55.003Z,9.90
2018-07-30T17:20:26.663Z,11.00
2018-07-30T17:21:58.069Z,10.50
2018-07-30T17:23:29.624Z,10.00
2018-07-30T17:26:32.774Z,8.60
2018-07-30T17:28:04.381Z,9.60
2018-07-30T17:29:36.272Z,9.70
2018-07-30T17:31:07.510Z,8.70
2018-07-30T17:32:39.383Z,9.20
2018-07-30T17:34:10.670Z,10.80
2018-07-30T17:37:14.076Z,10.30
2018-07-30T17:38:45.417Z,11.40
2018-07-30T17:40:16.986Z,9.10
2018-07-30T17:41:48.560Z,8.70
2018-07-30T17:44:51.955Z,7.70
2018-07-30T17:46:23.730Z,9.50
2018-07-30T17:47:55.159Z,7.70
2018-07-30T17:49:26.450Z,7.30
2018-07-30T17:50:58.377Z,8.40
2018-07-30T17:52:29.819Z,7.50
2018-07-30T17:54:01.186Z,7.30
2018-07-30T17:55:32.764Z,7.10
2018-07-30T17:57:04.945Z,7.60
2018-07-30T17:58:35.917Z,9.00
2018-07-30T18:00:08.020Z,7.60
2018-07-30T18:01:39.072Z,9.70
2018-07-30T18:03:10.952Z,9.70
2018-07-30T18:04:42.226Z,7.40
2018-07-30T18:06:13.804Z,7.60
2018-07-30T18:07:45.381Z,8.40
2018-07-30T18:09:16.998Z,9.50
2018-07-30T18:10:48.594Z,8.50
2018-07-30T18:13:51.689Z,7.80
2018-07-30T18:15:23.366Z,8.40
2018-07-30T18:16:54.843Z,9.30
2018-07-30T18:19:58.008Z,7.00
2018-07-30T18:21:29.585Z,7.50
2018-07-30T18:23:01.675Z,6.90
2018-07-30T18:26:04.829Z,7.60
2018-07-30T18:27:35.941Z,9.00
2018-07-30T18:30:39.028Z,7.20
2018-07-30T18:32:10.603Z,7.00
2018-07-30T18:33:42.281Z,9.70
2018-07-30T18:35:13.972Z,6.30
2018-07-30T18:36:46.059Z,6.70
2018-07-30T18:38:17.938Z,7.20
2018-07-30T18:39:48.480Z,7.10
2018-07-30T18:41:20.099Z,7.80
2018-07-30T18:42:52.136Z,8.00
2018-07-30T18:44:23.252Z,8.20
2018-07-30T18:45:54.945Z,7.90
2018-07-30T18:47:26.359Z,7.80
2018-07-30T18:48:57.928Z,8.40
2018-07-30T18:50:29.501Z,8.30
2018-07-30T18:52:01.180Z,8.70
2018-07-30T18:53:32.649Z,8.10
2018-07-30T18:55:04.223Z,8.10
2018-07-30T18:56:36.123Z,8.70
2018-07-30T18:58:07.374Z,8.00
2018-07-30T18:59:39.245Z,8.70
2018-07-30T19:01:10.520Z,9.60
2018-07-30T19:02:42.307Z,10.30
2018-07-30T19:04:13.659Z,9.30
2018-07-30T19:05:45.232Z,8.40
2018-07-30T19:07:16.958Z,10.00
2018-07-30T19:08:48.379Z,8.20
2018-07-30T19:10:20.250Z,10.30
2018-07-30T19:11:52.047Z,8.40
2018-07-30T19:14:55.287Z,9.80
2018-07-30T19:16:26.336Z,9.50
2018-07-30T19:17:57.808Z,9.10
2018-07-30T19:19:29.380Z,10.20
2018-07-30T19:21:01.155Z,9.90
2018-07-30T19:22:32.527Z,8.70
2018-07-30T19:25:35.877Z,9.80
2018-07-30T19:28:38.920Z,8.50
2018-07-30T19:30:10.696Z,9.10
2018-07-30T19:31:41.989Z,10.40
2018-07-30T19:34:45.114Z,10.80
2018-07-30T19:36:16.700Z,10.70
2018-07-30T19:39:20.133Z,10.90
2018-07-30T19:40:51.403Z,10.20
2018-07-30T19:48:31.457Z,11.10
2018-07-30T19:50:00.838Z,11.10
2018-07-30T19:51:32.437Z,10.40
2018-07-30T19:53:03.991Z,9.80
2018-07-30T19:54:35.556Z,9.10
2018-07-30T19:56:07.129Z,8.80
2018-07-30T19:59:10.803Z,8.70
2018-07-30T20:00:41.847Z,9.60
2018-07-30T20:02:13.502Z,10.30
2018-07-30T20:03:44.994Z,9.80
2018-07-30T20:05:16.605Z,11.70
2018-07-30T20:06:48.549Z,9.80
2018-07-30T20:08:19.762Z,12.30
2018-07-30T20:09:51.399Z,12.20
2018-07-30T20:12:54.431Z,12.90
2018-07-30T20:14:26.202Z,13.20
2018-07-30T20:15:57.575Z,12.70
2018-07-30T20:17:29.144Z,12.10
2018-07-30T20:19:00.829Z,11.80
2018-07-30T20:20:32.299Z,11.40
2018-07-30T20:22:04.164Z,11.70
2018-07-30T20:25:07.103Z,11.90
2018-07-30T20:26:38.582Z,12.30
2018-07-30T20:29:41.738Z,11.10
2018-07-30T20:31:13.292Z,10.30
2018-07-30T20:32:44.864Z,9.80
2018-07-30T20:34:16.434Z,10.10
2018-07-30T20:35:48.006Z,11.50
2018-07-30T20:37:19.671Z,10.50
2018-07-30T20:38:51.149Z,9.80
2018-07-30T20:40:22.727Z,10.60
2018-07-30T20:41:54.294Z,13.80
2018-07-30T20:43:25.964Z,10.90
2018-07-30T20:44:57.498Z,11.30
2018-07-30T20:46:29.010Z,12.70
2018-07-30T20:48:00.580Z,10.70
2018-07-30T20:49:32.152Z,11.10
2018-07-30T20:51:03.724Z,11.10
2018-07-30T20:52:35.295Z,11.20
2018-07-30T20:54:06.868Z,12.10
2018-07-30T20:55:38.453Z,10.00
2018-07-30T20:57:10.049Z,9.80
2018-07-30T20:58:41.583Z,10.20
2018-07-30T21:00:13.154Z,11.40
2018-07-30T21:01:44.833Z,11.50
2018-07-30T21:03:16.299Z,11.40
2018-07-30T21:04:47.870Z,11.30
2018-07-30T21:06:19.474Z,11.70
2018-07-30T21:07:51.013Z,11.50
2018-07-30T21:09:22.583Z,10.70
2018-07-30T21:10:54.193Z,13.90